ポートルイス の空港の天気 - METARとTAF

サー・シウサガル・ラングラーム国際空港 ( FIMP / MRU ) - モーリシャス ポートルイス
飛行場実況気象(Metar)
観測時間08/25 23:00 MUT (08/25 19:00 UTC)
風向・風速南東 6m/s
視程10km以上
天気現象
全天の4割程度の雲 雲底高度 490m
気温22℃
湿度69%
気圧1024hPa
METARFIMP 251900Z 13011KT 9999 SCT016 22/16 Q1024
過去の天気等 Google飛行場航空写真 Wunderground天気予報

過去48時間のMETAR

飛行場予報(TAF)
発表時間: 8/25 21:40 MUT (8/25 17:40 UTC)
予報対象時間: 25日22時 MUT ~ 27日4時 MUT
風向・風速南南東 6m/s 瞬間風速 13m/s
視程10km以上
全天の4割程度の雲 雲底高度 460m
25日22時 MUT ~ 26日4時 MUT に一時的に
視程7000m
天気現象弱いしゅう雨
少しの雲 雲底高度 300m
全天の8割程度の雲 雲底高度 430m
TAF FIMP 251740Z 2518/2700 15012G25KT 9999 SCT015
TEMPO 2518/2600 7000 -SHRA FEW010 BKN014